Time;durP1;ratioP1;P1;durP2;ratioP2;P2;SDS_P1;SDS_P2;PMS_P1;PMS_P2;Temp;Humidity;BMP_temperature;BMP_pressure;BME280_temperature;BME280_humidity;BME280_pressure;Samples;Min_cycle;Max_cycle;Signal;HPM_P1;HPM_P2
2021/09/06 00:00:49;;;;;;;11.80;4.63;;;;;;;9.73;63.21;101580.51;125282;1099;104229;-78
2021/09/06 00:03:19;;;;;;;13.63;4.87;;;;;;;9.68;63.70;101575.90;125278;1102;104280;-78
2021/09/06 00:05:51;;;;;;;13.00;4.70;;;;;;;9.67;63.83;101570.57;125276;1099;104155;-78
2021/09/06 00:08:22;;;;;;;14.33;4.90;;;;;;;9.65;64.06;101577.45;125120;1102;104261;-80
2021/09/06 00:11:04;;;;;;;10.77;4.73;;;;;;;9.63;63.46;101576.44;125252;1102;104146;-80
2021/09/06 00:13:35;;;;;;;12.23;4.73;;;;;;;9.59;63.78;101578.00;125205;1102;104142;-79
2021/09/06 00:16:08;;;;;;;12.23;5.00;;;;;;;9.58;63.70;101577.91;125280;1102;101877;-79
2021/09/06 00:18:39;;;;;;;13.77;4.93;;;;;;;9.55;64.81;101583.87;125228;1102;104198;-78
2021/09/06 00:21:11;;;;;;;10.47;4.47;;;;;;;9.50;64.63;101580.98;125224;1099;104222;-79
2021/09/06 00:23:43;;;;;;;;;;;;;;;9.48;65.06;101582.63;125261;1099;104198;-79
2021/09/06 00:26:14;;;;;;;12.65;4.10;;;;;;;9.46;63.81;101583.38;125139;1102;104219;-79
2021/09/06 00:28:45;;;;;;;15.87;4.63;;;;;;;9.48;64.12;101584.34;125202;1099;104245;-79
2021/09/06 00:31:17;;;;;;;11.50;4.30;;;;;;;9.49;64.16;101586.13;125233;1100;104627;-79
2021/09/06 00:33:48;;;;;;;12.10;4.00;;;;;;;9.48;65.21;101579.11;125210;1102;104242;-78
2021/09/06 00:36:19;;;;;;;10.77;4.60;;;;;;;9.43;65.98;101583.19;125271;1100;104153;-78
2021/09/06 00:38:50;;;;;;;11.03;4.20;;;;;;;9.37;66.22;101582.84;125142;1102;104156;-78
2021/09/06 00:41:23;;;;;;;9.73;4.53;;;;;;;9.28;65.40;101575.34;125161;1100;104239;-80
2021/09/06 00:43:55;;;;;;;11.67;4.37;;;;;;;9.26;65.51;101571.73;125227;1099;104184;-78
2021/09/06 00:46:27;;;;;;;12.63;4.50;;;;;;;9.26;65.98;101579.59;125225;1099;104159;-78
2021/09/06 00:48:58;;;;;;;10.97;4.27;;;;;;;9.25;65.13;101573.43;125207;1099;104188;-79
2021/09/06 00:51:28;;;;;;;13.10;4.50;;;;;;;9.25;65.70;101583.91;125289;1102;104222;-79
2021/09/06 00:53:59;;;;;;;10.70;4.60;;;;;;;9.23;65.64;101580.30;125206;1102;104197;-80
2021/09/06 00:56:31;;;;;;;16.37;4.90;;;;;;;9.24;65.81;101575.96;125247;1102;104175;-79
2021/09/06 00:59:02;;;;;;;11.87;4.80;;;;;;;9.22;66.79;101582.84;125266;1102;104152;-78
2021/09/06 01:01:34;;;;;;;11.00;4.27;;;;;;;9.16;66.76;101584.30;125338;1102;104142;-78
2021/09/06 01:04:06;;;;;;;10.33;4.70;;;;;;;9.09;67.21;101579.50;125213;1099;104143;-78
2021/09/06 01:06:48;;;;;;;12.05;4.55;;;;;;;9.04;66.45;101583.56;125309;1099;104192;-79
2021/09/06 01:09:39;;;;;;;11.33;4.93;;;;;;;9.00;67.31;101578.95;125175;1102;104194;-78
2021/09/06 01:12:23;;;;;;;13.13;4.67;;;;;;;8.97;66.96;101577.04;125218;1102;104229;-79
2021/09/06 01:14:56;;;;;;;12.03;4.70;;;;;;;8.97;67.22;101578.77;125186;1102;104493;-79
2021/09/06 01:17:28;;;;;;;11.57;4.80;;;;;;;8.96;66.75;101579.56;125173;1100;104252;-78
2021/09/06 01:19:59;;;;;;;12.33;4.87;;;;;;;8.97;66.56;101574.42;125173;1100;104255;-78
2021/09/06 01:22:30;;;;;;;15.70;5.20;;;;;;;8.96;67.33;101577.88;125198;1102;104775;-79
2021/09/06 01:25:20;;;;;;;11.83;4.70;;;;;;;8.96;67.19;101572.64;125184;1102;104345;-78
2021/09/06 01:27:53;;;;;;;11.90;4.75;;;;;;;8.98;66.80;101573.63;125156;1102;104175;-79
2021/09/06 01:30:30;;;;;;;14.60;4.80;;;;;;;8.96;67.33;101575.26;125105;1100;104153;-78
2021/09/06 01:33:01;;;;;;;10.33;4.57;;;;;;;8.95;66.93;101573.44;125180;1102;104178;-78
2021/09/06 01:35:33;;;;;;;13.77;4.77;;;;;;;8.96;67.37;101576.95;125254;1102;104198;-78
2021/09/06 01:38:05;;;;;;;11.53;5.10;;;;;;;8.93;67.01;101577.69;125227;1102;104309;-79
2021/09/06 01:40:36;;;;;;;13.60;4.97;;;;;;;8.89;67.23;101573.08;125199;1099;104192;-79
2021/09/06 01:43:08;;;;;;;11.73;4.67;;;;;;;8.86;67.65;101583.36;125253;1099;104217;-79
2021/09/06 01:45:39;;;;;;;9.27;4.23;;;;;;;8.86;67.58;101578.12;125222;1102;104239;-78
2021/09/06 01:48:11;;;;;;;13.90;4.80;;;;;;;8.86;67.56;101583.36;125178;1102;104626;-78
2021/09/06 01:50:47;;;;;;;18.07;5.47;;;;;;;8.88;67.53;101583.45;125172;1099;104153;-78
2021/09/06 01:53:19;;;;;;;11.80;4.20;;;;;;;8.87;67.70;101581.67;125207;1102;104281;-80
2021/09/06 01:55:50;;;;;;;12.20;4.60;;;;;;;8.83;67.24;101580.56;125233;1102;104152;-78
2021/09/06 01:58:21;;;;;;;13.60;4.93;;;;;;;8.80;68.02;101585.61;125215;1102;104172;-78
2021/09/06 02:00:53;;;;;;;11.43;4.80;;;;;;;8.77;68.31;101585.42;125255;1102;104220;-78
2021/09/06 02:03:24;;;;;;;10.63;4.40;;;;;;;8.73;67.71;101584.34;125203;1102;104245;-80
2021/09/06 02:05:58;;;;;;;11.45;4.95;;;;;;;8.69;68.36;101594.53;125300;1102;104216;-78
2021/09/06 02:08:43;;;;;;;10.33;4.47;;;;;;;8.65;68.42;101598.69;125183;1102;104624;-78
2021/09/06 02:11:14;;;;;;;12.73;4.47;;;;;;;8.63;68.14;101601.20;125197;1102;104146;-78
2021/09/06 02:13:45;;;;;;;13.97;4.80;;;;;;;8.66;68.31;101603.09;125207;1102;104143;-78
2021/09/06 02:16:18;;;;;;;17.67;5.20;;;;;;;8.68;68.23;101601.49;125186;1102;104203;-78
2021/09/06 02:18:49;;;;;;;11.40;4.50;;;;;;;8.71;68.09;101603.37;125228;1102;104155;-79
2021/09/06 02:21:20;;;;;;;10.87;4.23;;;;;;;8.76;68.17;101601.95;125177;1102;104198;-79
2021/09/06 02:23:54;;;;;;;13.83;4.50;;;;;;;8.79;67.76;101599.53;125213;1102;104271;-79
2021/09/06 02:26:26;;;;;;;11.60;4.23;;;;;;;8.76;68.27;101605.47;125203;1102;104153;-78
2021/09/06 02:29:00;;;;;;;12.47;4.63;;;;;;;8.72;68.26;101605.19;125237;1102;104188;-79
2021/09/06 02:31:31;;;;;;;16.73;4.90;;;;;;;8.67;67.80;101612.75;125173;1102;104280;-78
2021/09/06 02:34:18;;;;;;;12.00;4.37;;;;;;;8.61;68.82;101609.77;125211;1102;104595;-78
2021/09/06 02:36:51;;;;;;;14.03;4.27;;;;;;;8.54;68.69;101611.11;125232;1102;104166;-79
2021/09/06 02:39:24;;;;;;;12.63;5.20;;;;;;;8.47;69.13;101605.41;125228;1102;104229;-79
2021/09/06 02:41:58;;;;;;;12.23;4.70;;;;;;;8.42;70.14;101611.20;125137;1099;104305;-79
2021/09/06 02:44:31;;;;;;;11.27;4.43;;;;;;;8.39;68.96;101616.25;125310;1102;104145;-79
2021/09/06 02:47:05;;;;;;;11.05;4.75;;;;;;;8.37;68.93;101620.48;125265;1102;104174;-79
2021/09/06 02:49:36;;;;;;;12.10;4.70;;;;;;;8.36;68.79;101618.67;125227;1102;104251;-79
2021/09/06 02:52:09;;;;;;;11.83;4.53;;;;;;;8.37;68.90;101624.83;125255;1099;104195;-79
2021/09/06 02:54:40;;;;;;;14.00;4.40;;;;;;;8.36;69.45;101623.01;125151;1102;104320;-79
2021/09/06 02:57:11;;;;;;;9.40;3.80;;;;;;;8.34;69.33;101622.91;125173;1102;104150;-78
2021/09/06 02:59:43;;;;;;;13.47;5.07;;;;;;;8.33;69.06;101620.20;125196;1102;104146;-78
2021/09/06 03:02:14;;;;;;;13.47;4.17;;;;;;;8.32;68.86;101616.69;125279;1101;104258;-78
2021/09/06 03:04:46;;;;;;;10.47;4.40;;;;;;;8.34;69.50;101622.02;125196;1099;104247;-79
2021/09/06 03:07:17;;;;;;;10.77;4.40;;;;;;;8.35;69.02;101619.50;125198;1102;105308;-79
2021/09/06 03:09:49;;;;;;;11.87;4.00;;;;;;;8.35;69.56;101623.80;125224;1099;104163;-79
2021/09/06 03:12:20;;;;;;;9.03;3.90;;;;;;;8.35;69.62;101626.42;125239;1102;104153;-79
2021/09/06 03:14:51;;;;;;;10.13;3.83;;;;;;;8.37;69.11;101619.59;125219;1102;104158;-78
2021/09/06 03:17:22;;;;;;;12.57;4.30;;;;;;;8.40;70.40;101623.30;125207;1102;104695;-78
2021/09/06 03:19:54;;;;;;;10.53;4.40;;;;;;;8.39;69.73;101621.48;125134;1102;104389;-79
2021/09/06 03:22:24;;;;;;;14.43;4.93;;;;;;;8.38;69.89;101639.69;125240;1102;104201;-79
2021/09/06 03:24:56;;;;;;;8.20;3.90;;;;;;;8.34;70.11;101635.09;125215;1102;104268;-78
2021/09/06 03:27:27;;;;;;;12.17;4.20;;;;;;;8.30;70.24;101638.31;125286;1101;104198;-78
2021/09/06 03:29:58;;;;;;;10.97;4.97;;;;;;;8.28;71.07;101641.72;125210;1101;104150;-78
2021/09/06 03:32:29;;;;;;;11.93;4.50;;;;;;;8.24;70.10;101644.98;125150;1102;104624;-78
2021/09/06 03:35:01;;;;;;;10.40;4.07;;;;;;;8.22;70.72;101646.56;125185;1102;104179;-79
2021/09/06 03:37:34;;;;;;;15.47;4.47;;;;;;;8.24;70.47;101644.05;125221;1102;104163;-79
2021/09/06 03:40:05;;;;;;;10.00;4.43;;;;;;;8.24;69.88;101650.20;125244;1101;104602;-78
2021/09/06 03:42:37;;;;;;;9.67;4.10;;;;;;;8.25;69.99;101648.48;125192;1102;104193;-78
2021/09/06 03:45:09;;;;;;;10.50;4.17;;;;;;;8.22;70.03;101645.67;125148;1099;104229;-78
2021/09/06 03:47:40;;;;;;;11.57;4.67;;;;;;;8.20;69.91;101645.57;125212;1099;104156;-79
2021/09/06 03:50:12;;;;;;;10.60;4.80;;;;;;;8.18;70.45;101647.20;125279;1102;104195;-79
2021/09/06 03:52:44;;;;;;;14.60;4.87;;;;;;;8.17;70.60;101647.99;125189;1098;104267;-79
2021/09/06 03:55:20;;;;;;;10.87;4.63;;;;;;;8.17;70.52;101655.84;125239;1102;104335;-79
2021/09/06 03:57:56;;;;;;;13.67;4.80;;;;;;;8.20;70.37;101655.14;125137;1102;104195;-78
2021/09/06 04:00:29;;;;;;;12.37;4.87;;;;;;;8.25;70.73;101651.98;125196;1100;104165;-78
2021/09/06 04:03:01;;;;;;;13.50;4.63;;;;;;;8.28;70.01;101649.56;125174;1102;104139;-79
2021/09/06 04:05:34;;;;;;;13.57;5.00;;;;;;;8.28;70.67;101654.80;125167;1102;104222;-77
2021/09/06 04:08:08;;;;;;;11.48;4.62;;;;;;;8.24;70.45;101657.13;125181;1102;104169;-78
2021/09/06 04:10:40;;;;;;;13.37;5.03;;;;;;;8.22;70.49;101656.13;125186;1102;104156;-78
2021/09/06 04:13:12;;;;;;;14.20;5.33;;;;;;;8.22;70.89;101663.98;125202;1102;104252;-78
2021/09/06 04:15:45;;;;;;;12.87;5.00;;;;;;;8.20;71.00;101656.03;125221;1102;104156;-79
2021/09/06 04:18:17;;;;;;;13.75;5.17;;;;;;;8.20;70.62;101661.27;125218;1102;104381;-79
2021/09/06 04:20:49;;;;;;;12.40;4.80;;;;;;;8.22;71.33;101659.64;125223;1102;104258;-79
2021/09/06 04:23:20;;;;;;;13.87;4.70;;;;;;;8.23;71.01;101660.56;125112;1102;104181;-76
2021/09/06 04:25:51;;;;;;;10.60;4.43;;;;;;;8.23;71.38;101660.56;125226;1102;104329;-79
2021/09/06 04:28:23;;;;;;;12.97;4.93;;;;;;;8.23;71.12;101664.07;125177;1102;104217;-79
2021/09/06 04:30:57;;;;;;;11.53;4.73;;;;;;;8.24;71.99;101667.58;125242;1102;104248;-77
2021/09/06 04:33:34;;;;;;;9.95;4.35;;;;;;;8.23;71.08;101671.92;125170;1102;104263;-79
2021/09/06 04:36:06;;;;;;;12.60;4.97;;;;;;;8.25;71.97;101675.52;125196;1102;104368;-79
2021/09/06 04:38:43;;;;;;;14.37;4.97;;;;;;;8.27;71.50;101668.70;125229;1102;104197;-79
2021/09/06 04:41:14;;;;;;;13.93;5.40;;;;;;;8.32;71.46;101666.38;125181;1102;104142;-79
2021/09/06 04:43:48;;;;;;;11.70;4.60;;;;;;;8.39;71.79;101675.51;125128;1102;104168;-79
2021/09/06 04:46:19;;;;;;;13.58;4.70;;;;;;;8.46;71.72;101672.48;125129;1099;104201;-78
2021/09/06 04:48:52;;;;;;;11.30;4.60;;;;;;;8.53;71.38;101674.69;125166;1102;104182;-78
2021/09/06 04:51:24;;;;;;;15.00;4.57;;;;;;;8.59;71.18;101677.70;125238;1099;104192;-78
2021/09/06 04:53:55;;;;;;;11.33;4.60;;;;;;;8.64;71.46;101671.02;125163;1102;104213;-78
2021/09/06 04:56:34;;;;;;;15.30;4.75;;;;;;;8.69;71.70;101673.93;125193;1100;104159;-78
2021/09/06 04:59:07;;;;;;;14.17;4.70;;;;;;;8.72;71.41;101673.23;125142;1102;104264;-78
2021/09/06 05:01:41;;;;;;;17.30;5.20;;;;;;;8.74;71.39;101674.22;125152;1102;104156;-78
2021/09/06 05:04:13;;;;;;;9.30;4.00;;;;;;;8.80;71.47;101682.45;125162;1102;105490;-78
2021/09/06 05:06:44;;;;;;;14.50;4.60;;;;;;;8.83;71.91;101680.02;125245;1099;104152;-78
2021/09/06 05:09:17;;;;;;;14.27;4.30;;;;;;;8.89;71.73;101680.39;125221;1099;104310;-78
2021/09/06 05:11:49;;;;;;;11.95;4.40;;;;;;;8.98;71.40;101677.45;125246;1102;104214;-78
2021/09/06 05:14:20;;;;;;;14.70;5.03;;;;;;;9.07;71.94;101680.63;125061;1102;104243;-78
2021/09/06 05:16:51;;;;;;;13.97;4.27;;;;;;;9.13;71.13;101680.08;125241;1102;104184;-78
2021/09/06 05:19:23;;;;;;;13.70;5.57;;;;;;;9.18;71.59;101686.52;125240;1100;104146;-78
2021/09/06 05:21:55;;;;;;;13.27;4.70;;;;;;;9.15;71.12;101688.95;125158;1103;104237;-78
2021/09/06 05:24:26;;;;;;;10.50;4.40;;;;;;;9.17;71.25;101689.94;125173;1103;104137;-78
2021/09/06 05:26:58;;;;;;;12.83;4.57;;;;;;;9.20;71.59;101682.27;125177;1102;104421;-78
2021/09/06 05:29:33;;;;;;;16.23;4.93;;;;;;;9.25;71.70;101683.43;125216;1102;104267;-79
2021/09/06 05:32:04;;;;;;;15.30;4.87;;;;;;;9.31;71.87;101683.80;125190;1102;104156;-79
2021/09/06 05:34:37;;;;;;;13.13;4.63;;;;;;;9.38;71.60;101689.41;125202;1102;104213;-79
2021/09/06 05:37:09;;;;;;;16.87;5.10;;;;;;;9.43;71.09;101686.26;125234;1102;104140;-78
2021/09/06 05:39:40;;;;;;;13.30;4.80;;;;;;;9.50;71.04;101693.65;125133;1102;104351;-79
2021/09/06 05:42:14;;;;;;;18.03;5.20;;;;;;;9.54;71.06;101692.14;125230;1102;104152;-78
2021/09/06 05:44:49;;;;;;;17.53;5.00;;;;;;;9.61;70.99;101688.15;125084;1102;104213;-78
2021/09/06 05:47:22;;;;;;;15.37;4.63;;;;;;;9.71;70.91;101694.02;125147;1100;104184;-78
2021/09/06 05:49:53;;;;;;;16.10;5.35;;;;;;;9.84;71.29;101689.48;125175;1102;104213;-79
2021/09/06 05:52:27;;;;;;;15.73;4.93;;;;;;;9.94;71.29;101693.53;125137;1102;104172;-78
2021/09/06 05:55:00;;;;;;;17.15;5.28;;;;;;;10.02;71.27;101695.79;125152;1101;104252;-77
2021/09/06 05:57:31;;;;;;;18.23;5.42;;;;;;;10.11;71.05;101697.12;125090;1102;104182;-78
2021/09/06 06:00:02;;;;;;;17.67;5.40;;;;;;;10.17;70.92;101692.22;125093;1102;104166;-78
2021/09/06 06:02:45;;;;;;;15.93;4.80;;;;;;;10.25;70.91;101693.55;125077;1102;104291;-79
2021/09/06 06:05:16;;;;;;;17.30;5.07;;;;;;;10.31;70.82;101696.52;125013;1102;104162;-78
2021/09/06 06:07:49;;;;;;;17.77;5.40;;;;;;;10.38;70.70;101693.45;125066;1102;104207;-77
2021/09/06 06:10:24;;;;;;;17.43;5.80;;;;;;;10.45;70.35;101694.69;125046;1102;104220;-78
2021/09/06 06:12:56;;;;;;;17.50;6.37;;;;;;;10.54;70.33;101689.06;125184;1101;104293;-78
2021/09/06 06:15:30;;;;;;;16.42;6.03;;;;;;;10.64;69.70;101691.34;125086;1102;104149;-78
2021/09/06 06:18:04;;;;;;;16.43;6.63;;;;;;;10.74;70.40;101698.91;125128;1099;104149;-77
2021/09/06 06:20:41;;;;;;;18.37;6.57;;;;;;;10.85;69.93;101698.60;125203;1102;104191;-79
2021/09/06 06:23:32;;;;;;;19.77;6.83;;;;;;;10.97;69.90;101701.89;125088;1099;104406;-77
2021/09/06 06:26:18;;;;;;;21.17;6.50;;;;;;;11.08;69.85;101695.47;125180;1099;104143;-78
2021/09/06 06:28:51;;;;;;;19.90;7.20;;;;;;;11.20;69.55;101696.92;125176;1102;104302;-78
2021/09/06 06:31:23;;;;;;;20.13;7.53;;;;;;;11.32;69.28;101693.20;125165;1102;104140;-78
2021/09/06 06:33:54;;;;;;;20.00;7.15;;;;;;;11.46;69.21;101703.53;125153;1102;104157;-79
2021/09/06 06:36:28;;;;;;;22.83;7.80;;;;;;;11.57;69.29;101697.09;125195;1102;104267;-79
2021/09/06 06:39:01;;;;;;;18.60;6.20;;;;;;;11.67;69.32;101695.81;125270;1100;104178;-78
2021/09/06 06:41:37;;;;;;;21.37;6.90;;;;;;;11.79;69.25;101698.17;125130;1100;104239;-77
2021/09/06 06:44:15;;;;;;;20.77;6.40;;;;;;;11.92;69.08;101699.67;125137;1102;104625;-77
2021/09/06 06:47:13;;;;;;;21.53;6.90;;;;;;;12.05;69.12;101694.23;125200;1102;104261;-78
2021/09/06 06:50:05;;;;;;;19.70;7.87;;;;;;;12.23;68.87;101704.73;125166;1102;102305;-77
2021/09/06 06:52:49;;;;;;;19.92;7.33;;;;;;;12.44;68.21;101706.61;125169;1102;104261;-78
2021/09/06 06:55:25;;;;;;;26.73;7.20;;;;;;;12.58;68.12;101701.14;125240;1102;104153;-77
2021/09/06 06:57:59;;;;;;;21.33;6.90;;;;;;;12.73;68.07;101700.05;125159;1102;104351;-76
2021/09/06 07:00:31;;;;;;;18.15;6.60;;;;;;;12.84;67.93;101709.36;125207;1102;104343;-77
2021/09/06 07:03:03;;;;;;;26.45;7.35;;;;;;;12.97;68.08;101707.29;125213;1102;104325;-76
2021/09/06 07:05:47;;;;;;;20.47;7.90;;;;;;;13.10;67.58;101706.98;125197;1102;104229;-76
2021/09/06 07:08:21;;;;;;;22.27;7.13;;;;;;;13.28;67.18;101707.80;125157;1103;104156;-77
2021/09/06 07:10:54;;;;;;;17.57;6.83;;;;;;;13.45;66.92;101705.94;125143;1102;104342;-77
2021/09/06 07:13:28;;;;;;;22.50;6.53;;;;;;;13.60;67.26;101708.34;125163;1101;104501;-78
2021/09/06 07:16:04;;;;;;;18.97;6.53;;;;;;;13.77;67.62;101718.69;125109;1102;104304;-78
2021/09/06 07:18:37;;;;;;;20.53;6.50;;;;;;;13.94;66.89;101717.65;125186;1102;104271;-77
2021/09/06 07:21:09;;;;;;;21.90;7.17;;;;;;;14.11;66.33;101712.17;125248;1102;104973;-78
2021/09/06 07:23:42;;;;;;;19.47;7.07;;;;;;;14.26;66.50;101718.08;125179;1099;104144;-78
2021/09/06 07:26:16;;;;;;;21.90;7.15;;;;;;;14.42;65.95;101716.05;125167;1102;104166;-79
2021/09/06 07:28:47;;;;;;;;;;;;;;;14.59;65.39;101707.03;125205;1102;104181;-78
2021/09/06 07:31:23;;;;;;;22.80;7.75;;;;;;;14.76;65.59;101705.07;125004;1102;104168;-77
2021/09/06 07:33:57;;;;;;;18.20;6.40;;;;;;;14.90;65.08;101702.95;125240;1102;104217;-76
2021/09/06 07:36:32;;;;;;;21.77;7.42;;;;;;;15.05;64.15;101700.88;124845;1105;104543;-77
2021/09/06 07:39:06;;;;;;;20.13;6.93;;;;;;;15.27;64.43;101696.36;125303;1102;104232;-80
2021/09/06 07:41:42;;;;;;;20.13;6.17;;;;;;;15.44;63.89;101700.49;125166;1102;104232;-77
2021/09/06 07:44:14;;;;;;;16.17;6.60;;;;;;;15.60;63.18;101695.73;125013;1102;104173;-77
2021/09/06 07:46:46;;;;;;;22.67;6.77;;;;;;;15.78;60.96;101696.39;125179;1102;104641;-77
2021/09/06 07:49:23;;;;;;;15.00;5.85;;;;;;;15.94;61.82;101696.87;125186;1102;107602;-77
2021/09/06 07:51:59;;;;;;;20.70;6.00;;;;;;;15.97;60.96;101697.89;124912;1102;104178;-77
2021/09/06 07:54:29;;;;;;;19.00;6.13;;;;;;;16.09;61.71;101707.07;125211;1102;104256;-75
2021/09/06 07:57:02;;;;;;;14.63;5.93;;;;;;;16.22;59.75;101703.06;125192;1102;104299;-78
2021/09/06 07:59:39;;;;;;;15.43;5.53;;;;;;;16.34;60.55;101706.09;125196;1102;119201;-79
2021/09/06 08:02:14;;;;;;;18.17;5.60;;;;;;;16.44;60.14;101708.19;125162;1102;104194;-81
2021/09/06 08:04:53;;;;;;;13.30;5.17;;;;;;;16.62;58.50;101702.53;125217;1102;104146;-80
2021/09/06 08:07:30;;;;;;;14.00;5.00;;;;;;;16.80;57.23;101704.85;125193;1102;104297;-80
2021/09/06 08:10:12;;;;;;;12.77;4.87;;;;;;;16.93;58.08;101691.98;125224;1099;104607;-78
2021/09/06 08:12:45;;;;;;;19.70;4.93;;;;;;;17.07;56.45;101704.77;125151;1102;104140;-78
2021/09/06 08:15:21;;;;;;;10.10;4.60;;;;;;;17.20;56.50;101695.42;125117;1099;104159;-78
2021/09/06 08:17:54;;;;;;;10.57;4.37;;;;;;;17.31;54.88;101698.37;125064;1099;105602;-79
2021/09/06 08:20:28;;;;;;;13.60;4.50;;;;;;;17.38;55.85;101704.73;125233;1102;104272;-80
2021/09/06 08:23:05;;;;;;;11.07;4.37;;;;;;;17.41;56.16;101694.20;125180;1101;104139;-80
2021/09/06 08:25:38;;;;;;;10.90;3.73;;;;;;;17.51;54.34;101696.22;125202;1102;104197;-78
2021/09/06 08:28:15;;;;;;;8.67;3.80;;;;;;;17.60;55.02;101690.27;125053;1102;104315;-79
2021/09/06 08:30:50;;;;;;;15.37;3.00;;;;;;;17.71;54.19;101687.88;125122;1102;104139;-79
2021/09/06 08:33:27;;;;;;;8.87;3.80;;;;;;;17.82;54.31;101691.70;125199;1102;104153;-80
2021/09/06 08:36:08;;;;;;;7.50;3.40;;;;;;;17.87;52.19;101691.81;125177;1102;104178;-80
2021/09/06 08:38:42;;;;;;;5.87;2.80;;;;;;;17.94;51.41;101684.07;126171;1099;104181;-80
2021/09/06 08:41:15;;;;;;;5.80;2.80;;;;;;;18.10;51.34;101681.78;126279;1099;104312;-78
2021/09/06 08:43:50;;;;;;;6.97;2.83;;;;;;;18.17;51.45;101677.50;126278;1099;104153;-78
2021/09/06 08:46:35;;;;;;;6.87;2.60;;;;;;;18.25;50.77;101671.52;126330;1099;104152;-79
2021/09/06 08:49:06;;;;;;;;;;;;;;;18.37;49.88;101676.22;126200;1099;104177;-78
2021/09/06 08:51:40;;;;;;;3.33;2.10;;;;;;;18.48;50.59;101671.11;126178;1099;104169;-78
2021/09/06 08:54:14;;;;;;;;;;;;;;;18.61;47.50;101670.53;126062;1099;104175;-78
2021/09/06 08:56:47;;;;;;;4.03;2.50;;;;;;;18.68;48.81;101669.80;125912;1099;104402;-78
2021/09/06 08:59:23;;;;;;;6.95;2.95;;;;;;;18.69;48.22;101674.23;126135;1099;104278;-80
2021/09/06 09:01:58;;;;;;;5.30;2.97;;;;;;;18.65;47.52;101667.08;126245;1099;104324;-78
2021/09/06 09:04:39;;;;;;;6.50;2.80;;;;;;;18.71;48.54;101660.09;126250;1099;104187;-76
2021/09/06 09:07:27;;;;;;;5.17;3.00;;;;;;;18.74;47.08;101665.47;126001;1099;104345;-76
2021/09/06 09:10:30;;;;;;;6.40;2.53;;;;;;;18.69;44.45;101654.73;125883;1099;104159;-78
2021/09/06 09:13:25;;;;;;;6.40;2.97;;;;;;;18.82;46.59;101659.45;126162;1099;104181;-77
2021/09/06 09:16:12;;;;;;;;;;;;;;;18.97;46.57;101655.34;126244;1099;104271;-78
2021/09/06 09:19:07;;;;;;;9.87;3.00;;;;;;;19.02;45.71;101656.31;126041;1099;104237;-76
2021/09/06 09:22:01;;;;;;;7.10;3.00;;;;;;;19.11;46.10;101660.92;126177;1099;104271;-78
2021/09/06 09:25:01;;;;;;;5.43;2.67;;;;;;;19.13;45.78;101657.41;126277;1099;104582;-77
2021/09/06 09:27:48;;;;;;;5.13;2.60;;;;;;;19.16;44.82;101653.91;125343;1102;104674;-78
2021/09/06 09:30:33;;;;;;;7.23;3.00;;;;;;;19.16;42.12;101649.48;125988;1099;104143;-79
2021/09/06 09:33:24;;;;;;;6.30;2.80;;;;;;;19.15;44.77;101657.44;126038;1099;104226;-79
2021/09/06 09:36:29;;;;;;;7.93;3.33;;;;;;;19.12;42.84;101654.71;125997;1099;104229;-79
2021/09/06 09:39:14;;;;;;;6.87;2.80;;;;;;;19.10;40.93;101651.14;125369;1099;104219;-78
2021/09/06 09:41:50;;;;;;;10.78;3.27;;;;;;;19.16;42.39;101651.25;125905;1099;110025;-79
2021/09/06 09:44:27;;;;;;;6.53;3.10;;;;;;;19.23;42.59;101647.85;126066;1099;104143;-77
2021/09/06 09:47:16;;;;;;;12.17;3.63;;;;;;;19.35;42.55;101655.14;126163;1099;104308;-78
2021/09/06 09:49:50;;;;;;;5.70;2.87;;;;;;;19.38;39.88;101657.86;126098;1099;104332;-78
2021/09/06 09:52:27;;;;;;;6.97;2.97;;;;;;;19.26;40.83;101650.57;126186;1099;104188;-78
2021/09/06 09:55:01;;;;;;;7.20;3.20;;;;;;;19.26;41.19;101654.97;126224;1099;104258;-78
2021/09/06 09:57:35;;;;;;;6.73;2.73;;;;;;;19.35;41.02;101653.40;125273;1099;104248;-82
2021/09/06 10:00:12;;;;;;;7.20;3.03;;;;;;;19.40;39.67;101653.48;125902;1099;105626;-78
2021/09/06 10:02:52;;;;;;;7.10;2.73;;;;;;;19.42;40.76;101657.05;126118;1099;104243;-79
2021/09/06 10:05:29;;;;;;;7.60;3.63;;;;;;;19.40;38.72;101649.05;126054;1099;104213;-80
2021/09/06 10:08:03;;;;;;;7.20;3.40;;;;;;;19.41;39.74;101652.59;126111;1099;104278;-79
2021/09/06 10:10:40;;;;;;;7.07;3.00;;;;;;;19.39;39.30;101655.22;126015;1099;104344;-78
2021/09/06 10:13:17;;;;;;;11.43;3.50;;;;;;;19.35;39.29;101657.80;126113;1099;104249;-78
2021/09/06 10:16:03;;;;;;;7.57;3.30;;;;;;;19.30;39.25;101651.52;126012;1099;104762;-78
2021/09/06 10:18:42;;;;;;;6.20;3.00;;;;;;;19.24;39.40;101648.73;125998;1099;104214;-77
2021/09/06 10:21:18;;;;;;;8.93;3.10;;;;;;;19.28;38.82;101654.14;125180;1099;104251;-77
2021/09/06 10:23:52;;;;;;;9.20;3.00;;;;;;;19.40;39.09;101653.48;125822;1099;104172;-78
2021/09/06 10:26:38;;;;;;;4.73;2.60;;;;;;;19.50;39.10;101646.55;125180;1098;104156;-79
2021/09/06 10:29:19;;;;;;;8.27;2.93;;;;;;;19.60;38.75;101644.92;125854;1099;104249;-77
2021/09/06 10:32:03;;;;;;;7.80;3.07;;;;;;;19.69;38.45;101648.62;126141;1099;104197;-76
2021/09/06 10:34:36;;;;;;;8.30;2.83;;;;;;;19.69;37.96;101645.08;126202;1098;104227;-76
2021/09/06 10:37:10;;;;;;;7.30;3.13;;;;;;;19.78;38.07;101650.59;125267;1099;104169;-77
2021/09/06 10:39:47;;;;;;;;;;;;;;;19.93;38.61;101644.63;126123;1099;104194;-78
2021/09/06 10:42:18;;;;;;;5.30;3.00;;;;;;;20.06;38.43;101643.03;126169;1099;104252;-76
2021/09/06 10:44:59;;;;;;;4.23;2.43;;;;;;;20.04;37.57;101645.67;126131;1099;104184;-76
2021/09/06 10:47:37;;;;;;;6.63;2.97;;;;;;;20.13;37.40;101641.34;126202;1099;104290;-77
2021/09/06 10:50:22;;;;;;;6.20;3.03;;;;;;;20.32;38.01;101639.83;125376;1099;104140;-76
2021/09/06 10:52:57;;;;;;;7.40;2.90;;;;;;;20.56;37.64;101632.16;126200;1099;102467;-77
2021/09/06 10:55:31;;;;;;;6.03;2.90;;;;;;;20.65;36.73;101637.63;126122;1098;104252;-78
2021/09/06 10:58:12;;;;;;;8.07;2.93;;;;;;;20.75;37.39;101635.96;126299;1099;104149;-77
2021/09/06 11:00:52;;;;;;;4.80;2.70;;;;;;;20.78;35.25;101632.45;126319;1099;104252;-78
2021/09/06 11:03:28;;;;;;;5.57;2.77;;;;;;;20.82;34.98;101628.95;126186;1099;104240;-75
2021/09/06 11:06:13;;;;;;;5.57;2.53;;;;;;;20.82;36.25;101629.83;126327;1098;104281;-77
2021/09/06 11:08:46;;;;;;;5.10;2.90;;;;;;;20.82;34.93;101637.84;126230;1098;104296;-76
2021/09/06 11:11:21;;;;;;;9.50;3.50;;;;;;;20.78;35.36;101636.00;126202;1099;104133;-77
2021/09/06 11:13:59;;;;;;;8.95;2.70;;;;;;;20.74;34.36;101631.53;126096;1099;112799;-77
2021/09/06 11:16:42;;;;;;;5.57;2.80;;;;;;;20.75;35.05;101632.41;126218;1099;104184;-77
2021/09/06 11:19:20;;;;;;;9.30;3.00;;;;;;;20.69;33.89;101625.22;126130;1099;104510;-77
2021/09/06 11:21:59;;;;;;;5.60;2.60;;;;;;;20.63;34.12;101622.45;126098;1099;104147;-77
2021/09/06 11:24:34;;;;;;;8.03;2.70;;;;;;;20.61;34.52;101630.42;126210;1099;104176;-76
2021/09/06 11:27:07;;;;;;;4.22;3.17;;;;;;;20.56;33.51;101616.16;126051;1099;104168;-77
2021/09/06 11:29:46;;;;;;;9.03;3.35;;;;;;;20.51;34.12;101614.33;126225;1099;104274;-78
2021/09/06 11:32:22;;;;;;;8.33;3.07;;;;;;;20.53;34.42;101621.45;126019;1099;104169;-79
2021/09/06 11:35:07;;;;;;;9.33;3.47;;;;;;;20.48;34.44;101616.06;126149;1099;104325;-79
2021/09/06 11:37:44;;;;;;;4.23;2.40;;;;;;;20.47;33.42;101613.37;126157;1099;104175;-78
2021/09/06 11:40:15;;;;;;;9.37;2.60;;;;;;;20.48;33.55;101616.06;126262;1099;104321;-77
2021/09/06 11:42:47;;;;;;;5.40;2.70;;;;;;;20.52;34.25;101613.43;126256;1099;105484;-78
2021/09/06 11:45:22;;;;;;;6.03;2.60;;;;;;;20.48;33.37;101616.06;126168;1099;104147;-76